sensor_id;sensor_type;location;lat;lon;timestamp;P1;durP1;ratioP1;P2;durP2;ratioP2
1320;SDS011;653;51.480;11.992;2022-12-20T00:00:25;20.53;;;12.50;;
1320;SDS011;653;51.480;11.992;2022-12-20T00:02:51;18.83;;;11.27;;
1320;SDS011;653;51.480;11.992;2022-12-20T00:05:16;22.97;;;12.53;;
1320;SDS011;653;51.480;11.992;2022-12-20T00:07:41;19.40;;;12.30;;
1320;SDS011;653;51.480;11.992;2022-12-20T00:10:07;18.37;;;12.47;;
1320;SDS011;653;51.480;11.992;2022-12-20T00:12:32;18.33;;;12.07;;
1320;SDS011;653;51.480;11.992;2022-12-20T00:14:58;20.20;;;12.57;;
1320;SDS011;653;51.480;11.992;2022-12-20T00:17:23;19.60;;;13.00;;
1320;SDS011;653;51.480;11.992;2022-12-20T00:19:49;19.60;;;14.03;;
1320;SDS011;653;51.480;11.992;2022-12-20T00:22:14;19.27;;;13.30;;
1320;SDS011;653;51.480;11.992;2022-12-20T00:24:39;18.93;;;14.50;;
1320;SDS011;653;51.480;11.992;2022-12-20T00:27:05;21.23;;;13.47;;
1320;SDS011;653;51.480;11.992;2022-12-20T00:29:31;22.10;;;14.67;;
1320;SDS011;653;51.480;11.992;2022-12-20T00:31:56;23.23;;;14.67;;
1320;SDS011;653;51.480;11.992;2022-12-20T00:34:21;22.30;;;15.57;;
1320;SDS011;653;51.480;11.992;2022-12-20T00:36:47;24.20;;;15.97;;
1320;SDS011;653;51.480;11.992;2022-12-20T00:39:12;22.60;;;14.30;;
1320;SDS011;653;51.480;11.992;2022-12-20T00:41:37;23.70;;;13.90;;
1320;SDS011;653;51.480;11.992;2022-12-20T00:44:03;20.83;;;14.60;;
1320;SDS011;653;51.480;11.992;2022-12-20T00:46:29;20.97;;;13.17;;
1320;SDS011;653;51.480;11.992;2022-12-20T00:48:55;18.83;;;13.30;;
1320;SDS011;653;51.480;11.992;2022-12-20T00:51:22;20.63;;;14.10;;
1320;SDS011;653;51.480;11.992;2022-12-20T00:53:49;19.30;;;13.80;;
1320;SDS011;653;51.480;11.992;2022-12-20T00:56:14;17.73;;;12.03;;
1320;SDS011;653;51.480;11.992;2022-12-20T00:58:41;21.70;;;14.17;;
1320;SDS011;653;51.480;11.992;2022-12-20T01:01:15;19.40;;;13.27;;
1320;SDS011;653;51.480;11.992;2022-12-20T01:03:42;18.90;;;12.73;;
1320;SDS011;653;51.480;11.992;2022-12-20T01:06:11;23.43;;;13.50;;
1320;SDS011;653;51.480;11.992;2022-12-20T01:08:36;22.67;;;14.80;;
1320;SDS011;653;51.480;11.992;2022-12-20T01:13:34;19.57;;;13.43;;
1320;SDS011;653;51.480;11.992;2022-12-20T01:16:08;19.27;;;13.00;;
1320;SDS011;653;51.480;11.992;2022-12-20T01:18:35;22.13;;;14.43;;
1320;SDS011;653;51.480;11.992;2022-12-20T01:21:01;22.37;;;13.67;;
1320;SDS011;653;51.480;11.992;2022-12-20T01:23:28;22.63;;;14.17;;
1320;SDS011;653;51.480;11.992;2022-12-20T01:25:53;18.10;;;13.07;;
1320;SDS011;653;51.480;11.992;2022-12-20T01:28:19;22.30;;;13.27;;
1320;SDS011;653;51.480;11.992;2022-12-20T01:30:44;21.03;;;12.87;;
1320;SDS011;653;51.480;11.992;2022-12-20T01:33:09;22.87;;;14.20;;
1320;SDS011;653;51.480;11.992;2022-12-20T01:35:35;19.57;;;12.87;;
1320;SDS011;653;51.480;11.992;2022-12-20T01:38:00;21.20;;;12.73;;
1320;SDS011;653;51.480;11.992;2022-12-20T01:40:26;21.47;;;14.17;;
1320;SDS011;653;51.480;11.992;2022-12-20T01:42:51;19.00;;;13.20;;
1320;SDS011;653;51.480;11.992;2022-12-20T01:45:19;20.73;;;13.80;;
1320;SDS011;653;51.480;11.992;2022-12-20T01:47:50;23.00;;;15.00;;
1320;SDS011;653;51.480;11.992;2022-12-20T01:50:15;22.30;;;15.10;;
1320;SDS011;653;51.480;11.992;2022-12-20T01:52:42;19.70;;;12.70;;
1320;SDS011;653;51.480;11.992;2022-12-20T01:55:12;20.03;;;13.30;;
1320;SDS011;653;51.480;11.992;2022-12-20T01:57:41;21.60;;;13.80;;
1320;SDS011;653;51.480;11.992;2022-12-20T02:00:09;22.00;;;11.87;;
1320;SDS011;653;51.480;11.992;2022-12-20T02:02:35;20.57;;;12.40;;
1320;SDS011;653;51.480;11.992;2022-12-20T02:05:01;22.70;;;14.07;;
1320;SDS011;653;51.480;11.992;2022-12-20T02:07:27;20.10;;;14.00;;
1320;SDS011;653;51.480;11.992;2022-12-20T02:09:55;20.80;;;14.23;;
1320;SDS011;653;51.480;11.992;2022-12-20T02:12:22;21.80;;;15.47;;
1320;SDS011;653;51.480;11.992;2022-12-20T02:20:45;22.37;;;15.57;;
1320;SDS011;653;51.480;11.992;2022-12-20T02:26:18;28.20;;;17.10;;
1320;SDS011;653;51.480;11.992;2022-12-20T02:31:56;24.03;;;15.10;;
1320;SDS011;653;51.480;11.992;2022-12-20T02:34:25;21.50;;;14.27;;
1320;SDS011;653;51.480;11.992;2022-12-20T02:36:52;19.67;;;12.90;;
1320;SDS011;653;51.480;11.992;2022-12-20T02:39:17;22.60;;;13.30;;
1320;SDS011;653;51.480;11.992;2022-12-20T02:41:45;18.00;;;12.23;;
1320;SDS011;653;51.480;11.992;2022-12-20T02:44:14;22.10;;;12.67;;
1320;SDS011;653;51.480;11.992;2022-12-20T02:47:00;19.67;;;11.80;;
1320;SDS011;653;51.480;11.992;2022-12-20T02:49:31;17.23;;;12.13;;
1320;SDS011;653;51.480;11.992;2022-12-20T02:51:58;18.93;;;12.63;;
1320;SDS011;653;51.480;11.992;2022-12-20T02:54:25;16.27;;;11.80;;
1320;SDS011;653;51.480;11.992;2022-12-20T02:57:14;18.70;;;12.00;;
1320;SDS011;653;51.480;11.992;2022-12-20T02:59:49;17.17;;;10.47;;
1320;SDS011;653;51.480;11.992;2022-12-20T03:02:22;16.13;;;11.90;;
1320;SDS011;653;51.480;11.992;2022-12-20T03:04:48;25.30;;;15.43;;
1320;SDS011;653;51.480;11.992;2022-12-20T03:07:14;21.60;;;11.60;;
1320;SDS011;653;51.480;11.992;2022-12-20T03:09:41;19.97;;;13.70;;
1320;SDS011;653;51.480;11.992;2022-12-20T03:12:09;20.00;;;12.60;;
1320;SDS011;653;51.480;11.992;2022-12-20T03:14:38;18.80;;;12.93;;
1320;SDS011;653;51.480;11.992;2022-12-20T03:17:05;19.10;;;10.90;;
1320;SDS011;653;51.480;11.992;2022-12-20T03:19:30;18.80;;;12.30;;
1320;SDS011;653;51.480;11.992;2022-12-20T03:21:56;15.37;;;11.23;;
1320;SDS011;653;51.480;11.992;2022-12-20T03:24:22;17.87;;;12.70;;
1320;SDS011;653;51.480;11.992;2022-12-20T03:26:47;19.87;;;12.37;;
1320;SDS011;653;51.480;11.992;2022-12-20T03:29:13;18.63;;;12.27;;
1320;SDS011;653;51.480;11.992;2022-12-20T03:31:38;20.70;;;12.23;;
1320;SDS011;653;51.480;11.992;2022-12-20T03:34:03;18.43;;;10.90;;
1320;SDS011;653;51.480;11.992;2022-12-20T03:36:29;18.10;;;12.10;;
1320;SDS011;653;51.480;11.992;2022-12-20T03:38:55;15.73;;;11.40;;
1320;SDS011;653;51.480;11.992;2022-12-20T03:41:20;20.30;;;12.33;;
1320;SDS011;653;51.480;11.992;2022-12-20T03:43:47;15.77;;;12.37;;
1320;SDS011;653;51.480;11.992;2022-12-20T03:46:13;16.07;;;11.53;;
1320;SDS011;653;51.480;11.992;2022-12-20T03:48:38;14.57;;;10.40;;
1320;SDS011;653;51.480;11.992;2022-12-20T03:51:04;15.80;;;10.90;;
1320;SDS011;653;51.480;11.992;2022-12-20T03:53:33;17.63;;;11.20;;
1320;SDS011;653;51.480;11.992;2022-12-20T03:55:58;17.60;;;11.87;;
1320;SDS011;653;51.480;11.992;2022-12-20T03:58:24;14.43;;;11.17;;
1320;SDS011;653;51.480;11.992;2022-12-20T04:00:49;16.33;;;11.40;;
1320;SDS011;653;51.480;11.992;2022-12-20T04:03:14;20.10;;;12.20;;
1320;SDS011;653;51.480;11.992;2022-12-20T04:05:40;16.40;;;11.23;;
1320;SDS011;653;51.480;11.992;2022-12-20T04:08:06;20.83;;;12.53;;
1320;SDS011;653;51.480;11.992;2022-12-20T04:10:31;20.30;;;13.20;;
1320;SDS011;653;51.480;11.992;2022-12-20T04:12:57;19.67;;;12.07;;
1320;SDS011;653;51.480;11.992;2022-12-20T04:15:22;19.07;;;12.53;;
1320;SDS011;653;51.480;11.992;2022-12-20T04:17:47;21.13;;;13.10;;
1320;SDS011;653;51.480;11.992;2022-12-20T04:20:13;18.57;;;12.43;;
1320;SDS011;653;51.480;11.992;2022-12-20T04:22:49;18.40;;;13.53;;
1320;SDS011;653;51.480;11.992;2022-12-20T04:25:16;21.30;;;14.03;;
1320;SDS011;653;51.480;11.992;2022-12-20T04:27:43;19.80;;;12.87;;
1320;SDS011;653;51.480;11.992;2022-12-20T04:30:12;18.23;;;13.73;;
1320;SDS011;653;51.480;11.992;2022-12-20T04:32:41;22.23;;;13.97;;
1320;SDS011;653;51.480;11.992;2022-12-20T04:35:06;18.73;;;13.10;;
1320;SDS011;653;51.480;11.992;2022-12-20T04:37:32;17.20;;;12.00;;
1320;SDS011;653;51.480;11.992;2022-12-20T04:39:57;17.00;;;12.53;;
1320;SDS011;653;51.480;11.992;2022-12-20T04:42:23;18.70;;;14.13;;
1320;SDS011;653;51.480;11.992;2022-12-20T04:44:49;17.60;;;11.97;;
1320;SDS011;653;51.480;11.992;2022-12-20T04:47:14;20.40;;;12.80;;
1320;SDS011;653;51.480;11.992;2022-12-20T04:49:40;17.27;;;11.77;;
1320;SDS011;653;51.480;11.992;2022-12-20T04:52:05;19.00;;;12.50;;
1320;SDS011;653;51.480;11.992;2022-12-20T04:54:49;16.63;;;11.33;;
1320;SDS011;653;51.480;11.992;2022-12-20T04:57:14;16.73;;;12.27;;
1320;SDS011;653;51.480;11.992;2022-12-20T04:59:40;15.23;;;10.67;;
1320;SDS011;653;51.480;11.992;2022-12-20T05:02:05;17.63;;;12.33;;
1320;SDS011;653;51.480;11.992;2022-12-20T05:04:31;18.27;;;14.17;;
1320;SDS011;653;51.480;11.992;2022-12-20T05:06:56;19.70;;;12.17;;
1320;SDS011;653;51.480;11.992;2022-12-20T05:09:22;19.93;;;12.93;;
1320;SDS011;653;51.480;11.992;2022-12-20T05:11:47;19.90;;;13.23;;
1320;SDS011;653;51.480;11.992;2022-12-20T05:14:13;22.90;;;15.77;;
1320;SDS011;653;51.480;11.992;2022-12-20T05:16:38;21.13;;;16.03;;
1320;SDS011;653;51.480;11.992;2022-12-20T05:19:03;24.90;;;16.83;;
1320;SDS011;653;51.480;11.992;2022-12-20T05:21:29;22.13;;;15.20;;
1320;SDS011;653;51.480;11.992;2022-12-20T05:24:13;23.50;;;15.83;;
1320;SDS011;653;51.480;11.992;2022-12-20T05:26:58;26.30;;;16.13;;
1320;SDS011;653;51.480;11.992;2022-12-20T05:29:23;32.63;;;18.77;;
1320;SDS011;653;51.480;11.992;2022-12-20T05:31:49;26.60;;;18.60;;
1320;SDS011;653;51.480;11.992;2022-12-20T05:34:16;23.73;;;16.67;;
1320;SDS011;653;51.480;11.992;2022-12-20T05:36:41;24.53;;;17.87;;
1320;SDS011;653;51.480;11.992;2022-12-20T05:39:07;23.90;;;17.23;;
1320;SDS011;653;51.480;11.992;2022-12-20T05:41:32;22.73;;;16.70;;
1320;SDS011;653;51.480;11.992;2022-12-20T05:43:58;21.10;;;16.00;;
1320;SDS011;653;51.480;11.992;2022-12-20T05:46:23;27.80;;;17.00;;
1320;SDS011;653;51.480;11.992;2022-12-20T05:48:48;24.70;;;16.13;;
1320;SDS011;653;51.480;11.992;2022-12-20T05:51:14;23.43;;;15.47;;
1320;SDS011;653;51.480;11.992;2022-12-20T05:53:39;19.30;;;14.07;;
1320;SDS011;653;51.480;11.992;2022-12-20T05:56:05;20.37;;;13.30;;
1320;SDS011;653;51.480;11.992;2022-12-20T05:58:30;18.77;;;13.10;;
1320;SDS011;653;51.480;11.992;2022-12-20T06:00:55;20.00;;;13.93;;
1320;SDS011;653;51.480;11.992;2022-12-20T06:03:21;19.00;;;11.27;;
1320;SDS011;653;51.480;11.992;2022-12-20T06:05:47;14.43;;;11.67;;
1320;SDS011;653;51.480;11.992;2022-12-20T06:08:13;16.37;;;11.60;;
1320;SDS011;653;51.480;11.992;2022-12-20T06:10:39;16.50;;;10.80;;
1320;SDS011;653;51.480;11.992;2022-12-20T06:13:06;12.90;;;10.10;;
1320;SDS011;653;51.480;11.992;2022-12-20T06:15:31;14.80;;;10.77;;
1320;SDS011;653;51.480;11.992;2022-12-20T06:17:57;15.83;;;11.40;;
1320;SDS011;653;51.480;11.992;2022-12-20T06:20:23;17.23;;;12.67;;
1320;SDS011;653;51.480;11.992;2022-12-20T06:22:48;18.40;;;10.73;;
1320;SDS011;653;51.480;11.992;2022-12-20T06:25:14;15.30;;;9.93;;
1320;SDS011;653;51.480;11.992;2022-12-20T06:27:40;15.83;;;11.60;;
1320;SDS011;653;51.480;11.992;2022-12-20T06:30:06;17.70;;;11.53;;
1320;SDS011;653;51.480;11.992;2022-12-20T06:32:32;24.37;;;17.97;;
1320;SDS011;653;51.480;11.992;2022-12-20T06:34:59;22.00;;;17.60;;
1320;SDS011;653;51.480;11.992;2022-12-20T06:37:24;42.77;;;25.60;;
1320;SDS011;653;51.480;11.992;2022-12-20T06:39:49;37.07;;;23.20;;
1320;SDS011;653;51.480;11.992;2022-12-20T06:42:15;62.33;;;35.20;;
1320;SDS011;653;51.480;11.992;2022-12-20T06:44:41;35.33;;;19.67;;
1320;SDS011;653;51.480;11.992;2022-12-20T06:47:06;19.13;;;14.20;;
1320;SDS011;653;51.480;11.992;2022-12-20T06:49:31;23.20;;;14.00;;
1320;SDS011;653;51.480;11.992;2022-12-20T06:51:57;21.03;;;13.93;;
1320;SDS011;653;51.480;11.992;2022-12-20T06:54:22;18.50;;;13.30;;
1320;SDS011;653;51.480;11.992;2022-12-20T06:56:47;37.97;;;24.20;;
1320;SDS011;653;51.480;11.992;2022-12-20T06:59:13;44.37;;;26.67;;
1320;SDS011;653;51.480;11.992;2022-12-20T07:01:38;51.27;;;29.93;;
1320;SDS011;653;51.480;11.992;2022-12-20T07:04:04;37.77;;;24.87;;
1320;SDS011;653;51.480;11.992;2022-12-20T07:06:29;40.43;;;24.27;;
1320;SDS011;653;51.480;11.992;2022-12-20T07:08:54;25.93;;;16.87;;
1320;SDS011;653;51.480;11.992;2022-12-20T07:11:20;16.07;;;12.67;;
1320;SDS011;653;51.480;11.992;2022-12-20T07:13:46;16.40;;;11.70;;
1320;SDS011;653;51.480;11.992;2022-12-20T07:16:11;20.20;;;12.93;;
1320;SDS011;653;51.480;11.992;2022-12-20T07:18:36;19.00;;;13.50;;
1320;SDS011;653;51.480;11.992;2022-12-20T07:21:03;18.03;;;12.00;;
1320;SDS011;653;51.480;11.992;2022-12-20T07:23:29;18.17;;;11.87;;
1320;SDS011;653;51.480;11.992;2022-12-20T07:25:55;20.70;;;13.10;;
1320;SDS011;653;51.480;11.992;2022-12-20T07:28:22;20.73;;;12.87;;
1320;SDS011;653;51.480;11.992;2022-12-20T07:30:47;17.77;;;12.37;;
1320;SDS011;653;51.480;11.992;2022-12-20T07:33:13;18.57;;;12.87;;
1320;SDS011;653;51.480;11.992;2022-12-20T07:35:38;20.70;;;13.40;;
1320;SDS011;653;51.480;11.992;2022-12-20T07:38:04;19.57;;;12.73;;
1320;SDS011;653;51.480;11.992;2022-12-20T07:40:29;19.73;;;13.43;;
1320;SDS011;653;51.480;11.992;2022-12-20T07:42:55;20.07;;;12.30;;
1320;SDS011;653;51.480;11.992;2022-12-20T07:45:20;19.63;;;13.57;;
1320;SDS011;653;51.480;11.992;2022-12-20T07:47:45;20.77;;;14.27;;
1320;SDS011;653;51.480;11.992;2022-12-20T07:50:11;19.37;;;12.67;;
1320;SDS011;653;51.480;11.992;2022-12-20T07:52:36;17.93;;;12.90;;
1320;SDS011;653;51.480;11.992;2022-12-20T07:55:04;19.03;;;12.27;;
1320;SDS011;653;51.480;11.992;2022-12-20T07:57:36;16.50;;;10.83;;
1320;SDS011;653;51.480;11.992;2022-12-20T08:00:07;18.17;;;12.90;;
1320;SDS011;653;51.480;11.992;2022-12-20T08:02:38;20.13;;;13.30;;
1320;SDS011;653;51.480;11.992;2022-12-20T08:05:06;17.47;;;12.90;;
1320;SDS011;653;51.480;11.992;2022-12-20T08:07:32;18.60;;;12.20;;
1320;SDS011;653;51.480;11.992;2022-12-20T08:09:58;18.57;;;13.60;;
1320;SDS011;653;51.480;11.992;2022-12-20T08:12:23;22.97;;;15.10;;
1320;SDS011;653;51.480;11.992;2022-12-20T08:14:50;20.30;;;12.57;;
1320;SDS011;653;51.480;11.992;2022-12-20T08:17:20;21.93;;;14.27;;
1320;SDS011;653;51.480;11.992;2022-12-20T08:19:45;21.70;;;14.30;;
1320;SDS011;653;51.480;11.992;2022-12-20T08:22:11;17.87;;;12.17;;
1320;SDS011;653;51.480;11.992;2022-12-20T08:24:37;18.17;;;13.70;;
1320;SDS011;653;51.480;11.992;2022-12-20T08:27:02;15.80;;;11.80;;
1320;SDS011;653;51.480;11.992;2022-12-20T08:29:27;18.77;;;12.40;;
1320;SDS011;653;51.480;11.992;2022-12-20T08:31:53;18.77;;;11.40;;
1320;SDS011;653;51.480;11.992;2022-12-20T08:34:18;21.20;;;12.57;;
1320;SDS011;653;51.480;11.992;2022-12-20T08:36:44;18.50;;;12.27;;
1320;SDS011;653;51.480;11.992;2022-12-20T08:39:09;19.30;;;12.93;;
1320;SDS011;653;51.480;11.992;2022-12-20T08:41:35;16.43;;;12.50;;
1320;SDS011;653;51.480;11.992;2022-12-20T08:44:01;19.43;;;13.10;;
1320;SDS011;653;51.480;11.992;2022-12-20T08:46:28;23.53;;;14.90;;
1320;SDS011;653;51.480;11.992;2022-12-20T08:48:53;18.60;;;13.60;;
1320;SDS011;653;51.480;11.992;2022-12-20T08:51:18;22.27;;;15.13;;
1320;SDS011;653;51.480;11.992;2022-12-20T08:53:44;28.47;;;16.97;;
1320;SDS011;653;51.480;11.992;2022-12-20T08:56:10;31.40;;;21.10;;
1320;SDS011;653;51.480;11.992;2022-12-20T08:58:38;38.27;;;24.00;;
1320;SDS011;653;51.480;11.992;2022-12-20T09:01:05;18.23;;;13.73;;
1320;SDS011;653;51.480;11.992;2022-12-20T09:03:31;20.33;;;13.53;;
1320;SDS011;653;51.480;11.992;2022-12-20T09:05:57;21.60;;;13.67;;
1320;SDS011;653;51.480;11.992;2022-12-20T09:08:23;17.23;;;12.40;;
1320;SDS011;653;51.480;11.992;2022-12-20T09:10:51;20.23;;;13.57;;
1320;SDS011;653;51.480;11.992;2022-12-20T09:13:17;20.70;;;14.20;;
1320;SDS011;653;51.480;11.992;2022-12-20T09:15:43;20.07;;;14.70;;
1320;SDS011;653;51.480;11.992;2022-12-20T09:18:09;19.20;;;13.87;;
1320;SDS011;653;51.480;11.992;2022-12-20T09:20:34;25.10;;;15.03;;
1320;SDS011;653;51.480;11.992;2022-12-20T09:23:00;18.07;;;13.50;;
1320;SDS011;653;51.480;11.992;2022-12-20T09:25:26;21.13;;;14.10;;
1320;SDS011;653;51.480;11.992;2022-12-20T09:27:52;20.90;;;14.70;;
1320;SDS011;653;51.480;11.992;2022-12-20T09:30:21;20.33;;;14.07;;
1320;SDS011;653;51.480;11.992;2022-12-20T09:32:47;22.33;;;13.57;;
1320;SDS011;653;51.480;11.992;2022-12-20T09:35:12;20.93;;;15.90;;
1320;SDS011;653;51.480;11.992;2022-12-20T09:37:38;20.20;;;13.83;;
1320;SDS011;653;51.480;11.992;2022-12-20T09:40:04;18.87;;;13.83;;
1320;SDS011;653;51.480;11.992;2022-12-20T09:42:30;20.20;;;15.20;;
1320;SDS011;653;51.480;11.992;2022-12-20T09:45:04;23.17;;;14.70;;
1320;SDS011;653;51.480;11.992;2022-12-20T09:47:32;22.67;;;14.33;;
1320;SDS011;653;51.480;11.992;2022-12-20T09:49:58;20.17;;;14.33;;
1320;SDS011;653;51.480;11.992;2022-12-20T10:00:22;23.10;;;16.40;;
1320;SDS011;653;51.480;11.992;2022-12-20T10:02:48;21.53;;;14.00;;
1320;SDS011;653;51.480;11.992;2022-12-20T10:16:52;31.80;;;21.97;;
1320;SDS011;653;51.480;11.992;2022-12-20T10:19:53;23.93;;;18.37;;
1320;SDS011;653;51.480;11.992;2022-12-20T10:27:44;19.07;;;15.00;;
1320;SDS011;653;51.480;11.992;2022-12-20T10:30:18;21.23;;;16.70;;
1320;SDS011;653;51.480;11.992;2022-12-20T10:32:46;22.03;;;16.00;;
1320;SDS011;653;51.480;11.992;2022-12-20T10:37:38;23.10;;;16.53;;
1320;SDS011;653;51.480;11.992;2022-12-20T10:40:58;23.93;;;16.40;;
1320;SDS011;653;51.480;11.992;2022-12-20T10:43:25;23.13;;;15.83;;
1320;SDS011;653;51.480;11.992;2022-12-20T10:45:56;22.83;;;16.27;;
1320;SDS011;653;51.480;11.992;2022-12-20T10:48:29;22.00;;;15.13;;
1320;SDS011;653;51.480;11.992;2022-12-20T10:50:57;22.40;;;16.03;;
1320;SDS011;653;51.480;11.992;2022-12-20T10:53:23;20.33;;;14.67;;
1320;SDS011;653;51.480;11.992;2022-12-20T10:55:49;20.33;;;15.93;;
1320;SDS011;653;51.480;11.992;2022-12-20T10:58:35;25.27;;;15.80;;
1320;SDS011;653;51.480;11.992;2022-12-20T11:06:38;22.50;;;15.67;;
1320;SDS011;653;51.480;11.992;2022-12-20T11:09:11;21.67;;;16.17;;
1320;SDS011;653;51.480;11.992;2022-12-20T11:12:19;21.17;;;16.30;;
1320;SDS011;653;51.480;11.992;2022-12-20T11:14:38;22.87;;;16.80;;
1320;SDS011;653;51.480;11.992;2022-12-20T11:23:07;20.77;;;15.10;;
1320;SDS011;653;51.480;11.992;2022-12-20T11:39:08;15.67;;;12.07;;
1320;SDS011;653;51.480;11.992;2022-12-20T11:41:43;15.13;;;11.93;;
1320;SDS011;653;51.480;11.992;2022-12-20T11:49:30;16.53;;;12.40;;
1320;SDS011;653;51.480;11.992;2022-12-20T11:52:34;17.07;;;13.03;;
1320;SDS011;653;51.480;11.992;2022-12-20T11:55:15;16.07;;;11.93;;
1320;SDS011;653;51.480;11.992;2022-12-20T12:00:31;17.90;;;12.60;;
1320;SDS011;653;51.480;11.992;2022-12-20T12:05:50;23.20;;;15.13;;
1320;SDS011;653;51.480;11.992;2022-12-20T12:08:18;24.07;;;16.80;;
1320;SDS011;653;51.480;11.992;2022-12-20T12:10:52;20.47;;;15.00;;
1320;SDS011;653;51.480;11.992;2022-12-20T12:13:25;19.73;;;14.60;;
1320;SDS011;653;51.480;11.992;2022-12-20T12:18:31;25.73;;;15.20;;
1320;SDS011;653;51.480;11.992;2022-12-20T12:23:31;29.60;;;22.60;;
1320;SDS011;653;51.480;11.992;2022-12-20T12:26:04;26.33;;;20.23;;
1320;SDS011;653;51.480;11.992;2022-12-20T12:28:34;21.17;;;15.37;;
1320;SDS011;653;51.480;11.992;2022-12-20T12:31:03;23.57;;;16.67;;
1320;SDS011;653;51.480;11.992;2022-12-20T12:33:36;23.80;;;16.67;;
1320;SDS011;653;51.480;11.992;2022-12-20T12:38:54;19.43;;;15.20;;
1320;SDS011;653;51.480;11.992;2022-12-20T12:46:45;37.83;;;25.40;;
1320;SDS011;653;51.480;11.992;2022-12-20T12:49:14;22.90;;;15.43;;
1320;SDS011;653;51.480;11.992;2022-12-20T12:51:43;19.97;;;13.93;;
1320;SDS011;653;51.480;11.992;2022-12-20T12:54:21;19.60;;;13.70;;
1320;SDS011;653;51.480;11.992;2022-12-20T12:56:50;19.67;;;13.40;;
1320;SDS011;653;51.480;11.992;2022-12-20T12:59:22;20.47;;;13.67;;
1320;SDS011;653;51.480;11.992;2022-12-20T13:01:49;20.73;;;13.00;;
1320;SDS011;653;51.480;11.992;2022-12-20T13:07:00;19.37;;;14.10;;
1320;SDS011;653;51.480;11.992;2022-12-20T13:11:53;20.40;;;15.20;;
1320;SDS011;653;51.480;11.992;2022-12-20T13:16:48;19.47;;;13.30;;
1320;SDS011;653;51.480;11.992;2022-12-20T13:29:54;21.53;;;14.63;;
1320;SDS011;653;51.480;11.992;2022-12-20T13:37:51;19.80;;;14.30;;
1320;SDS011;653;51.480;11.992;2022-12-20T13:40:41;18.73;;;12.87;;
1320;SDS011;653;51.480;11.992;2022-12-20T13:48:41;20.40;;;13.40;;
1320;SDS011;653;51.480;11.992;2022-12-20T13:51:21;24.63;;;13.33;;
1320;SDS011;653;51.480;11.992;2022-12-20T13:54:06;25.57;;;14.90;;
1320;SDS011;653;51.480;11.992;2022-12-20T13:56:39;22.30;;;12.93;;
1320;SDS011;653;51.480;11.992;2022-12-20T13:59:14;17.37;;;13.33;;
1320;SDS011;653;51.480;11.992;2022-12-20T14:01:48;18.70;;;15.03;;
1320;SDS011;653;51.480;11.992;2022-12-20T14:04:16;22.07;;;14.73;;
1320;SDS011;653;51.480;11.992;2022-12-20T14:06:42;19.30;;;13.37;;
1320;SDS011;653;51.480;11.992;2022-12-20T14:12:06;18.03;;;12.80;;
1320;SDS011;653;51.480;11.992;2022-12-20T14:14:37;18.90;;;13.90;;
1320;SDS011;653;51.480;11.992;2022-12-20T14:22:39;19.70;;;12.37;;
1320;SDS011;653;51.480;11.992;2022-12-20T14:25:17;19.87;;;13.23;;
1320;SDS011;653;51.480;11.992;2022-12-20T14:27:47;20.17;;;12.57;;
1320;SDS011;653;51.480;11.992;2022-12-20T14:30:26;18.67;;;13.60;;
1320;SDS011;653;51.480;11.992;2022-12-20T14:32:53;19.43;;;13.60;;
1320;SDS011;653;51.480;11.992;2022-12-20T14:35:22;21.60;;;13.47;;
1320;SDS011;653;51.480;11.992;2022-12-20T14:37:58;21.30;;;14.20;;
1320;SDS011;653;51.480;11.992;2022-12-20T14:40:28;21.80;;;16.27;;
1320;SDS011;653;51.480;11.992;2022-12-20T14:42:54;16.70;;;12.50;;
1320;SDS011;653;51.480;11.992;2022-12-20T14:45:24;18.50;;;13.90;;
1320;SDS011;653;51.480;11.992;2022-12-20T14:48:04;20.47;;;13.37;;
1320;SDS011;653;51.480;11.992;2022-12-20T14:52:58;17.27;;;12.33;;
1320;SDS011;653;51.480;11.992;2022-12-20T14:55:27;17.33;;;12.57;;
1320;SDS011;653;51.480;11.992;2022-12-20T14:57:57;19.10;;;13.33;;
1320;SDS011;653;51.480;11.992;2022-12-20T15:00:26;20.27;;;13.57;;
1320;SDS011;653;51.480;11.992;2022-12-20T15:02:58;32.00;;;14.60;;
1320;SDS011;653;51.480;11.992;2022-12-20T15:08:11;20.33;;;14.50;;
1320;SDS011;653;51.480;11.992;2022-12-20T15:10:39;17.33;;;12.57;;
1320;SDS011;653;51.480;11.992;2022-12-20T15:13:13;20.93;;;13.80;;
1320;SDS011;653;51.480;11.992;2022-12-20T15:15:43;22.00;;;14.00;;
1320;SDS011;653;51.480;11.992;2022-12-20T15:18:13;21.17;;;15.00;;
1320;SDS011;653;51.480;11.992;2022-12-20T15:20:40;19.63;;;13.50;;
1320;SDS011;653;51.480;11.992;2022-12-20T15:23:09;22.27;;;14.63;;
1320;SDS011;653;51.480;11.992;2022-12-20T15:25:38;22.50;;;14.10;;
1320;SDS011;653;51.480;11.992;2022-12-20T15:28:10;21.20;;;14.53;;
1320;SDS011;653;51.480;11.992;2022-12-20T15:30:38;26.73;;;17.87;;
1320;SDS011;653;51.480;11.992;2022-12-20T15:33:03;29.97;;;16.40;;
1320;SDS011;653;51.480;11.992;2022-12-20T15:35:29;23.80;;;15.70;;
1320;SDS011;653;51.480;11.992;2022-12-20T15:37:55;23.30;;;15.33;;
1320;SDS011;653;51.480;11.992;2022-12-20T15:40:20;19.50;;;14.00;;
1320;SDS011;653;51.480;11.992;2022-12-20T15:42:46;22.13;;;14.37;;
1320;SDS011;653;51.480;11.992;2022-12-20T15:45:14;18.53;;;14.27;;
1320;SDS011;653;51.480;11.992;2022-12-20T15:47:43;22.47;;;15.73;;
1320;SDS011;653;51.480;11.992;2022-12-20T15:50:09;24.50;;;15.23;;
1320;SDS011;653;51.480;11.992;2022-12-20T15:52:36;20.87;;;15.37;;
1320;SDS011;653;51.480;11.992;2022-12-20T15:55:01;30.83;;;19.97;;
1320;SDS011;653;51.480;11.992;2022-12-20T15:57:27;24.23;;;15.90;;
1320;SDS011;653;51.480;11.992;2022-12-20T15:59:54;24.37;;;15.77;;
1320;SDS011;653;51.480;11.992;2022-12-20T16:02:22;33.33;;;17.70;;
1320;SDS011;653;51.480;11.992;2022-12-20T16:04:54;26.63;;;16.57;;
1320;SDS011;653;51.480;11.992;2022-12-20T16:07:19;24.90;;;15.33;;
1320;SDS011;653;51.480;11.992;2022-12-20T16:09:45;30.50;;;15.60;;
1320;SDS011;653;51.480;11.992;2022-12-20T16:12:12;25.70;;;14.53;;
1320;SDS011;653;51.480;11.992;2022-12-20T16:14:40;20.27;;;13.43;;
1320;SDS011;653;51.480;11.992;2022-12-20T16:17:09;22.23;;;15.43;;
1320;SDS011;653;51.480;11.992;2022-12-20T16:19:39;24.60;;;17.23;;
1320;SDS011;653;51.480;11.992;2022-12-20T16:22:05;22.63;;;17.00;;
1320;SDS011;653;51.480;11.992;2022-12-20T16:24:34;24.00;;;17.30;;
1320;SDS011;653;51.480;11.992;2022-12-20T16:26:59;21.67;;;14.57;;
1320;SDS011;653;51.480;11.992;2022-12-20T16:29:25;20.17;;;14.13;;
1320;SDS011;653;51.480;11.992;2022-12-20T16:31:51;23.47;;;15.63;;
1320;SDS011;653;51.480;11.992;2022-12-20T16:34:17;25.27;;;15.53;;
1320;SDS011;653;51.480;11.992;2022-12-20T16:36:43;22.00;;;14.87;;
1320;SDS011;653;51.480;11.992;2022-12-20T16:39:09;20.00;;;15.60;;
1320;SDS011;653;51.480;11.992;2022-12-20T16:41:35;22.33;;;16.50;;
1320;SDS011;653;51.480;11.992;2022-12-20T16:44:09;21.13;;;15.90;;
1320;SDS011;653;51.480;11.992;2022-12-20T16:46:43;21.23;;;14.67;;
1320;SDS011;653;51.480;11.992;2022-12-20T16:49:10;19.37;;;14.63;;
1320;SDS011;653;51.480;11.992;2022-12-20T16:51:41;18.83;;;13.67;;
1320;SDS011;653;51.480;11.992;2022-12-20T16:54:12;20.97;;;14.10;;
1320;SDS011;653;51.480;11.992;2022-12-20T16:56:39;22.53;;;16.00;;
1320;SDS011;653;51.480;11.992;2022-12-20T16:59:05;20.90;;;14.60;;
1320;SDS011;653;51.480;11.992;2022-12-20T17:01:35;24.17;;;14.87;;
1320;SDS011;653;51.480;11.992;2022-12-20T17:04:02;19.50;;;15.00;;
1320;SDS011;653;51.480;11.992;2022-12-20T17:06:28;19.20;;;13.50;;